createdAt,value
2023-03-11T00:00:09.227Z,96855.31
2023-03-11T00:03:30.548Z,96854.14
2023-03-11T00:06:32.434Z,96848.14
2023-03-11T00:09:34.845Z,96842.16
2023-03-11T00:12:36.334Z,96846.16
2023-03-11T00:15:38.881Z,96842.81
2023-03-11T00:18:40.660Z,96839.38
2023-03-11T00:21:42.232Z,96838.52
2023-03-11T00:24:43.876Z,96834.58
2023-03-11T00:27:45.680Z,96833.88
2023-03-11T00:30:47.439Z,96836.09
2023-03-11T00:33:49.036Z,96832.80
2023-03-11T00:36:50.554Z,96829.80
2023-03-11T00:39:52.326Z,96828.13
2023-03-11T00:42:53.954Z,96824.92
2023-03-11T00:45:55.638Z,96825.44
2023-03-11T00:48:57.209Z,96818.71
2023-03-11T00:51:58.794Z,96810.57
2023-03-11T00:55:00.228Z,96814.02
2023-03-11T00:58:04.893Z,96812.82
2023-03-11T01:01:15.195Z,96813.58
2023-03-11T01:04:17.001Z,96808.19
2023-03-11T01:07:18.800Z,96805.05
2023-03-11T01:10:20.706Z,96801.45
2023-03-11T01:13:22.490Z,96799.46
2023-03-11T01:16:24.447Z,96806.08
2023-03-11T01:19:26.170Z,96800.96
2023-03-11T01:22:28.500Z,96793.20
2023-03-11T01:25:30.587Z,96792.91
2023-03-11T01:28:32.285Z,96790.11
2023-03-11T01:31:34.223Z,96786.85
2023-03-11T01:34:35.789Z,96779.63
2023-03-11T01:37:37.552Z,96780.48
2023-03-11T01:40:40.736Z,96778.36
2023-03-11T01:43:45.420Z,96779.28
2023-03-11T01:46:53.290Z,96778.03
2023-03-11T01:49:55.383Z,96778.29
2023-03-11T01:52:57.048Z,96780.71
2023-03-11T01:55:58.726Z,96782.06
2023-03-11T01:59:00.672Z,96782.83
2023-03-11T02:02:09.738Z,96788.04
2023-03-11T02:05:11.380Z,96791.55
2023-03-11T02:08:12.931Z,96786.89
2023-03-11T02:11:18.278Z,96783.23
2023-03-11T02:14:20.415Z,96787.13
2023-03-11T02:17:22.316Z,96786.23
2023-03-11T02:20:36.306Z,96786.84
2023-03-11T02:24:01.103Z,96785.81
2023-03-11T02:27:10.684Z,96787.76
2023-03-11T02:30:13.822Z,96791.23
2023-03-11T02:33:15.850Z,96784.05
2023-03-11T02:36:41.748Z,96783.80
2023-03-11T02:39:45.624Z,96784.10
2023-03-11T02:42:47.267Z,96792.70
2023-03-11T02:45:49.713Z,96793.48
2023-03-11T02:48:52.014Z,96800.59
2023-03-11T02:51:53.557Z,96802.20
2023-03-11T02:54:55.446Z,96799.02
2023-03-11T02:57:57.240Z,96796.21
2023-03-11T03:00:58.926Z,96796.15
2023-03-11T03:04:00.649Z,96796.36
2023-03-11T03:07:02.729Z,96799.56
2023-03-11T03:10:05.721Z,96793.70
2023-03-11T03:13:07.370Z,96794.00
2023-03-11T03:16:08.974Z,96800.89
2023-03-11T03:19:10.619Z,96801.57
2023-03-11T03:22:12.325Z,96801.04
2023-03-11T03:25:13.980Z,96792.02
2023-03-11T03:28:15.543Z,96797.73
2023-03-11T03:31:17.123Z,96794.36
2023-03-11T03:34:18.772Z,96798.13
2023-03-11T03:37:21.064Z,96798.13
2023-03-11T03:40:22.603Z,96800.58
2023-03-11T03:43:24.228Z,96798.67
2023-03-11T03:46:25.953Z,96809.30
2023-03-11T03:49:27.673Z,96810.14
2023-03-11T03:52:29.594Z,96810.52
2023-03-11T03:55:31.321Z,96808.30
2023-03-11T03:58:33.177Z,96803.00
2023-03-11T04:01:34.731Z,96804.56
2023-03-11T04:04:36.160Z,96798.73
2023-03-11T04:07:37.705Z,96796.84
2023-03-11T04:10:39.174Z,96795.48
2023-03-11T04:13:40.716Z,96784.02
2023-03-11T04:16:42.610Z,96775.60
2023-03-11T04:19:44.227Z,96779.10
2023-03-11T04:22:45.755Z,96788.91
2023-03-11T04:25:47.174Z,96789.73
2023-03-11T04:28:48.751Z,96787.38
2023-03-11T04:31:50.268Z,96792.27
2023-03-11T04:34:51.811Z,96795.94
2023-03-11T04:37:53.361Z,96799.72
2023-03-11T04:40:54.919Z,96796.92
2023-03-11T04:43:56.673Z,96795.53
2023-03-11T04:46:58.243Z,96796.21
2023-03-11T04:49:59.713Z,96791.93
2023-03-11T04:53:01.257Z,96785.98
2023-03-11T04:56:02.920Z,96783.80
2023-03-11T04:59:04.469Z,96783.42
2023-03-11T05:02:06.140Z,96781.77
2023-03-11T05:05:09.248Z,96778.41
2023-03-11T05:08:10.898Z,96785.70
2023-03-11T05:11:12.478Z,96784.86
2023-03-11T05:14:13.994Z,96790.88
2023-03-11T05:17:15.640Z,96794.97
2023-03-11T05:20:17.327Z,96794.23
2023-03-11T05:23:19.108Z,96794.05
2023-03-11T05:26:20.693Z,96796.73
2023-03-11T05:29:22.605Z,96803.79
2023-03-11T05:32:24.124Z,96805.31
2023-03-11T05:35:26.109Z,96802.00
2023-03-11T05:38:27.925Z,96802.98
2023-03-11T05:41:29.411Z,96821.83
2023-03-11T05:44:31.763Z,96824.47
2023-03-11T05:47:33.662Z,96824.86
2023-03-11T05:50:35.262Z,96826.08
2023-03-11T05:53:37.177Z,96826.77
2023-03-11T05:56:38.659Z,96827.02
2023-03-11T05:59:40.236Z,96828.64
2023-03-11T06:02:41.780Z,96835.37
2023-03-11T06:05:50.193Z,96842.84
2023-03-11T06:08:51.936Z,96847.71
2023-03-11T06:11:53.560Z,96850.42
2023-03-11T06:14:55.124Z,96859.36
2023-03-11T06:17:56.698Z,96866.73
2023-03-11T06:20:59.440Z,96870.64
2023-03-11T06:24:01.305Z,96870.98
2023-03-11T06:27:03.179Z,96874.02
2023-03-11T06:30:05.434Z,96885.71
2023-03-11T06:33:07.018Z,96885.55
2023-03-11T06:36:08.807Z,96892.76
2023-03-11T06:39:13.359Z,96890.64
2023-03-11T06:42:15.075Z,96896.55
2023-03-11T06:45:18.903Z,96904.05
2023-03-11T06:48:21.947Z,96905.91
2023-03-11T06:51:23.525Z,96905.11
2023-03-11T06:54:25.110Z,96914.33
2023-03-11T06:57:26.738Z,96924.59
2023-03-11T07:00:28.297Z,96933.70
2023-03-11T07:03:30.677Z,96940.45
2023-03-11T07:06:32.243Z,96946.63
2023-03-11T07:09:34.129Z,96947.52
2023-03-11T07:12:35.893Z,96959.22
2023-03-11T07:15:37.447Z,96966.70
2023-03-11T07:18:38.973Z,96975.27
2023-03-11T07:21:40.971Z,96981.42
2023-03-11T07:24:45.548Z,96981.17
2023-03-11T07:27:47.184Z,96987.55
2023-03-11T07:30:48.981Z,96991.14
2023-03-11T07:33:51.342Z,96993.22
2023-03-11T07:36:52.929Z,96994.02
2023-03-11T07:39:54.870Z,97005.87
2023-03-11T07:42:56.480Z,97005.38
2023-03-11T07:46:04.600Z,97009.04
2023-03-11T07:49:06.182Z,97014.31
2023-03-11T07:52:07.799Z,97022.52
2023-03-11T07:55:09.859Z,97026.06
2023-03-11T07:58:11.369Z,97028.92
2023-03-11T08:01:14.096Z,97032.73
2023-03-11T08:04:15.786Z,97038.62
2023-03-11T08:07:17.577Z,97044.98
2023-03-11T08:10:19.148Z,97048.79
2023-03-11T08:13:21.140Z,97050.38
2023-03-11T08:16:22.884Z,97050.41
2023-03-11T08:19:24.468Z,97057.48
2023-03-11T08:22:26.232Z,97065.36
2023-03-11T08:25:27.858Z,97067.46
2023-03-11T08:28:29.630Z,97071.70
2023-03-11T08:31:32.659Z,97068.88
2023-03-11T08:34:34.361Z,97073.59
2023-03-11T08:37:36.240Z,97074.16
2023-03-11T08:40:37.958Z,97080.68
2023-03-11T08:43:39.898Z,97075.80
2023-03-11T08:46:41.878Z,97084.11
2023-03-11T08:49:43.476Z,97086.83
2023-03-11T08:52:45.682Z,97094.01
2023-03-11T08:55:47.229Z,97096.73
2023-03-11T08:58:48.874Z,97105.17
2023-03-11T09:01:50.579Z,97112.97
2023-03-11T09:04:52.106Z,97112.73
2023-03-11T09:07:53.829Z,97120.15
2023-03-11T09:10:55.666Z,97118.23
2023-03-11T09:13:57.150Z,97126.02
2023-03-11T09:16:58.858Z,97130.39
2023-03-11T09:20:00.440Z,97134.39
2023-03-11T09:23:02.143Z,97136.40
2023-03-11T09:26:04.173Z,97137.60
2023-03-11T09:29:05.740Z,97148.55
2023-03-11T09:32:07.422Z,97140.70
2023-03-11T09:35:09.657Z,97143.73
2023-03-11T09:38:11.300Z,97149.98
2023-03-11T09:41:18.790Z,97157.68
2023-03-11T09:44:43.417Z,97158.80
2023-03-11T09:47:44.976Z,97160.21
2023-03-11T09:50:46.691Z,97160.83
2023-03-11T09:53:53.151Z,97164.21
2023-03-11T09:56:55.278Z,97164.66
2023-03-11T09:59:57.184Z,97169.16
2023-03-11T10:03:00.018Z,97171.95
2023-03-11T10:06:25.308Z,97176.64
2023-03-11T10:09:37.590Z,97164.52
2023-03-11T10:12:43.684Z,97177.14
2023-03-11T10:15:59.453Z,97182.88
2023-03-11T10:19:25.064Z,97186.90
2023-03-11T10:22:30.588Z,97196.47
2023-03-11T10:26:03.771Z,97203.17
2023-03-11T10:29:28.199Z,97204.27
2023-03-11T10:32:36.100Z,97212.69
2023-03-11T10:35:42.163Z,97212.50
2023-03-11T10:38:48.247Z,97216.97
2023-03-11T10:41:53.761Z,97221.70
2023-03-11T10:44:55.397Z,97231.08
2023-03-11T10:47:56.940Z,97242.06
2023-03-11T10:51:11.190Z,97247.48
2023-03-11T10:54:30.824Z,97252.71
2023-03-11T10:57:37.327Z,97253.02
2023-03-11T11:00:38.950Z,97261.35
2023-03-11T11:03:46.273Z,97266.04
2023-03-11T11:06:47.885Z,97264.90
2023-03-11T11:10:12.022Z,97265.02
2023-03-11T11:13:13.819Z,97271.55
2023-03-11T11:16:19.232Z,97277.59
2023-03-11T11:19:20.957Z,97286.84
2023-03-11T11:22:23.751Z,97290.47
2023-03-11T11:25:32.837Z,97292.35
2023-03-11T11:28:34.864Z,97300.17
2023-03-11T11:31:37.730Z,97303.86
2023-03-11T11:34:39.535Z,97297.94
2023-03-11T11:37:49.834Z,97309.51
2023-03-11T11:40:52.147Z,97319.16
2023-03-11T11:43:56.236Z,97324.80
2023-03-11T11:47:06.222Z,97327.60
2023-03-11T11:50:15.631Z,97334.17
2023-03-11T11:53:45.427Z,97343.95
2023-03-11T11:56:47.007Z,97351.40
2023-03-11T11:59:48.861Z,97357.01
2023-03-11T12:03:12.123Z,97366.80
2023-03-11T12:06:19.612Z,97377.95
2023-03-11T12:09:24.398Z,97380.27
2023-03-11T12:12:46.728Z,97385.41
2023-03-11T12:15:55.724Z,97388.45
2023-03-11T12:18:59.654Z,97392.38
2023-03-11T12:22:35.307Z,97394.74
2023-03-11T12:26:10.866Z,97404.08
2023-03-11T12:29:26.580Z,97411.95
2023-03-11T12:32:40.339Z,97427.52
2023-03-11T12:35:48.806Z,97436.00
2023-03-11T12:38:51.068Z,97447.20
2023-03-11T12:42:22.571Z,97456.31
2023-03-11T12:45:50.764Z,97465.61
2023-03-11T12:49:07.830Z,97478.52
2023-03-11T12:52:13.187Z,97494.50
2023-03-11T12:55:17.869Z,97507.77
2023-03-11T12:58:35.549Z,97523.36
2023-03-11T13:01:42.953Z,97538.85
2023-03-11T13:04:51.589Z,97556.30
2023-03-11T13:08:12.133Z,97574.25
2023-03-11T13:11:36.871Z,97581.03
2023-03-11T13:14:38.546Z,97592.59
2023-03-11T13:17:40.177Z,97599.40
2023-03-11T13:20:41.804Z,97612.62
2023-03-11T13:23:43.385Z,97619.51
2023-03-11T13:27:04.672Z,97625.21
2023-03-11T13:30:17.323Z,97635.33
2023-03-11T13:33:45.290Z,97644.27
2023-03-11T13:36:55.486Z,97653.55
2023-03-11T13:40:02.743Z,97666.73
2023-03-11T13:43:17.856Z,97674.91
2023-03-11T13:46:19.467Z,97688.04
2023-03-11T13:49:39.733Z,97689.48
2023-03-11T13:52:49.194Z,97704.68
2023-03-11T13:55:50.919Z,97712.14
2023-03-11T13:58:52.542Z,97723.79
2023-03-11T14:01:56.887Z,97728.25
2023-03-11T14:05:06.406Z,97736.44
2023-03-11T14:08:27.581Z,97746.64
2023-03-11T14:11:29.576Z,97756.77
2023-03-11T14:14:42.866Z,97761.35
2023-03-11T14:17:45.688Z,97767.61
2023-03-11T14:20:49.381Z,97767.96
2023-03-11T14:23:54.291Z,97772.23
2023-03-11T14:27:00.148Z,97777.53
2023-03-11T14:30:01.851Z,97787.11
2023-03-11T14:33:04.585Z,97798.33
2023-03-11T14:36:11.831Z,97803.91
2023-03-11T14:39:22.515Z,97816.69
2023-03-11T14:42:38.803Z,97827.42
2023-03-11T14:45:42.256Z,97832.89
2023-03-11T14:48:43.936Z,97845.41
2023-03-11T14:51:45.508Z,97857.86
2023-03-11T14:54:47.803Z,97870.51
2023-03-11T14:57:55.611Z,97876.00
2023-03-11T15:01:19.752Z,97886.23
2023-03-11T15:04:33.738Z,97900.55
2023-03-11T15:07:36.732Z,97910.96
2023-03-11T15:10:38.479Z,97920.80
2023-03-11T15:13:42.815Z,97928.75
2023-03-11T15:16:44.398Z,97934.04
2023-03-11T15:19:45.999Z,97940.51
2023-03-11T15:22:56.688Z,97945.05
2023-03-11T15:25:59.155Z,97948.39
2023-03-11T15:29:03.737Z,97951.48
2023-03-11T15:32:25.174Z,97954.98
2023-03-11T15:35:29.152Z,97969.98
2023-03-11T15:38:32.135Z,97978.48
2023-03-11T15:41:33.734Z,97986.59
2023-03-11T15:45:00.388Z,97994.59
2023-03-11T15:48:02.024Z,98004.97
2023-03-11T15:51:03.612Z,98018.06
2023-03-11T15:54:05.243Z,98022.30
2023-03-11T15:57:07.952Z,98033.11
2023-03-11T16:00:21.720Z,98042.48
2023-03-11T16:03:24.346Z,98041.90
2023-03-11T16:06:25.912Z,98045.52
2023-03-11T16:09:27.511Z,98050.14
2023-03-11T16:12:29.124Z,98053.23
2023-03-11T16:15:31.889Z,98060.55
2023-03-11T16:18:33.626Z,98066.17
2023-03-11T16:21:40.200Z,98074.20
2023-03-11T16:24:41.841Z,98079.34
2023-03-11T16:27:43.378Z,98090.59
2023-03-11T16:30:45.537Z,98096.55
2023-03-11T16:33:47.248Z,98097.79
2023-03-11T16:36:48.780Z,98102.05
2023-03-11T16:39:50.406Z,98105.98
2023-03-11T16:42:58.398Z,98114.52
2023-03-11T16:45:59.981Z,98122.68
2023-03-11T16:49:01.599Z,98130.51
2023-03-11T16:52:03.295Z,98137.84
2023-03-11T16:55:05.530Z,98142.61
2023-03-11T16:58:07.147Z,98144.85
2023-03-11T17:01:12.170Z,98151.33
2023-03-11T17:04:13.776Z,98150.02
2023-03-11T17:07:15.530Z,98156.86
2023-03-11T17:10:17.743Z,98162.86
2023-03-11T17:13:19.475Z,98164.92
2023-03-11T17:16:21.060Z,98169.70
2023-03-11T17:19:25.264Z,98176.02
2023-03-11T17:22:26.816Z,98182.13
2023-03-11T17:25:28.460Z,98188.52
2023-03-11T17:28:30.114Z,98190.55
2023-03-11T17:31:31.702Z,98195.14
2023-03-11T17:34:33.566Z,98209.36
2023-03-11T17:37:35.038Z,98224.13
2023-03-11T17:40:38.059Z,98232.06
2023-03-11T17:43:40.540Z,98234.98
2023-03-11T17:46:42.182Z,98238.24
2023-03-11T17:49:43.935Z,98240.48
2023-03-11T17:52:48.426Z,98247.18
2023-03-11T17:55:50.169Z,98255.35
2023-03-11T17:58:52.248Z,98263.88
2023-03-11T18:01:53.895Z,98279.18
2023-03-11T18:04:55.588Z,98293.80
2023-03-11T18:07:57.329Z,98289.39
2023-03-11T18:11:02.354Z,98293.52
2023-03-11T18:14:04.111Z,98303.19
2023-03-11T18:17:05.773Z,98310.84
2023-03-11T18:20:07.586Z,98325.47
2023-03-11T18:23:09.414Z,98325.48
2023-03-11T18:26:13.619Z,98337.30
2023-03-11T18:29:15.180Z,98345.30
2023-03-11T18:32:16.882Z,98347.38
2023-03-11T18:35:18.686Z,98351.41
2023-03-11T18:38:20.274Z,98358.20
2023-03-11T18:41:22.409Z,98365.36
2023-03-11T18:44:24.107Z,98374.33
2023-03-11T18:47:26.277Z,98381.80
2023-03-11T18:50:28.665Z,98388.59
2023-03-11T18:53:30.365Z,98388.80
2023-03-11T18:56:31.954Z,98395.25
2023-03-11T18:59:33.765Z,98401.37
2023-03-11T19:02:35.307Z,98407.16
2023-03-11T19:05:37.009Z,98412.45
2023-03-11T19:08:39.019Z,98418.23
2023-03-11T19:11:40.515Z,98421.13
2023-03-11T19:14:42.301Z,98422.06
2023-03-11T19:17:44.087Z,98429.84
2023-03-11T19:20:56.436Z,98436.49
2023-03-11T19:23:58.064Z,98442.77
2023-03-11T19:26:59.883Z,98451.59
2023-03-11T19:30:01.357Z,98460.24
2023-03-11T19:33:03.097Z,98467.73
2023-03-11T19:36:06.190Z,98471.95
2023-03-11T19:39:08.416Z,98482.64
2023-03-11T19:42:09.999Z,98484.54
2023-03-11T19:45:11.617Z,98494.74
2023-03-11T19:48:13.370Z,98497.32
2023-03-11T19:51:15.114Z,98508.53
2023-03-11T19:54:17.163Z,98511.39
2023-03-11T19:57:18.864Z,98517.86
2023-03-11T20:00:21.078Z,98520.55
2023-03-11T20:03:23.145Z,98520.63
2023-03-11T20:06:24.714Z,98523.91
2023-03-11T20:09:26.433Z,98530.02
2023-03-11T20:12:31.048Z,98534.11
2023-03-11T20:15:32.937Z,98542.73
2023-03-11T20:18:34.657Z,98550.36
2023-03-11T20:21:36.330Z,98546.91
2023-03-11T20:24:38.025Z,98550.47
2023-03-11T20:27:39.765Z,98553.85
2023-03-11T20:30:41.494Z,98547.33
2023-03-11T20:33:43.548Z,98549.71
2023-03-11T20:36:45.271Z,98554.04
2023-03-11T20:39:46.904Z,98561.58
2023-03-11T20:42:48.506Z,98564.83
2023-03-11T20:45:50.122Z,98564.55
2023-03-11T20:48:51.942Z,98573.07
2023-03-11T20:51:53.532Z,98578.02
2023-03-11T20:54:55.210Z,98580.61
2023-03-11T20:57:56.786Z,98585.57
2023-03-11T21:00:58.386Z,98586.66
2023-03-11T21:04:02.131Z,98586.77
2023-03-11T21:07:03.883Z,98588.68
2023-03-11T21:10:07.760Z,98592.02
2023-03-11T21:13:09.321Z,98591.41
2023-03-11T21:16:11.121Z,98596.86
2023-03-11T21:19:12.962Z,98597.58
2023-03-11T21:22:14.828Z,98600.36
2023-03-11T21:25:16.452Z,98602.56
2023-03-11T21:28:18.003Z,98603.63
2023-03-11T21:31:21.578Z,98604.88
2023-03-11T21:34:23.352Z,98606.42
2023-03-11T21:37:25.421Z,98606.61
2023-03-11T21:40:27.253Z,98605.38
2023-03-11T21:43:28.949Z,98603.85
2023-03-11T21:46:31.422Z,98607.06
2023-03-11T21:49:33.382Z,98609.10
2023-03-11T21:52:34.889Z,98617.08
2023-03-11T21:55:36.547Z,98621.04
2023-03-11T21:58:38.300Z,98620.60
2023-03-11T22:01:40.157Z,98622.84
2023-03-11T22:04:42.690Z,98628.79
2023-03-11T22:07:44.465Z,98631.70
2023-03-11T22:10:46.136Z,98637.17
2023-03-11T22:13:49.694Z,98645.81
2023-03-11T22:16:51.744Z,98645.14
2023-03-11T22:19:53.691Z,98649.04
2023-03-11T22:22:55.230Z,98652.23
2023-03-11T22:25:57.051Z,98653.14
2023-03-11T22:28:58.546Z,98653.85
2023-03-11T22:32:00.245Z,98659.63
2023-03-11T22:35:01.783Z,98659.13
2023-03-11T22:38:03.836Z,98660.31
2023-03-11T22:41:06.818Z,98659.45
2023-03-11T22:44:08.422Z,98661.14
2023-03-11T22:47:10.063Z,98661.46
2023-03-11T22:50:11.685Z,98660.93
2023-03-11T22:53:13.494Z,98666.48
2023-03-11T22:56:16.243Z,98669.77
2023-03-11T22:59:17.843Z,98673.40
2023-03-11T23:02:19.419Z,98675.38
2023-03-11T23:05:22.063Z,98676.16
2023-03-11T23:08:23.726Z,98683.21
2023-03-11T23:11:25.699Z,98680.79
2023-03-11T23:14:33.984Z,98682.08
2023-03-11T23:17:45.571Z,98684.88
2023-03-11T23:20:47.134Z,98686.19
2023-03-11T23:23:48.798Z,98689.71
2023-03-11T23:26:50.350Z,98689.56
2023-03-11T23:29:51.944Z,98687.86
2023-03-11T23:32:53.521Z,98689.21
2023-03-11T23:35:55.119Z,98694.27
2023-03-11T23:38:57.617Z,98693.06
2023-03-11T23:41:59.226Z,98699.77
2023-03-11T23:45:01.122Z,98703.48
2023-03-11T23:48:02.662Z,98704.64
2023-03-11T23:51:04.882Z,98709.69
2023-03-11T23:54:07.571Z,98710.53
2023-03-11T23:57:10.322Z,98711.90
